createdAt,value
2022-11-18T00:01:36.540Z,11.07
2022-11-18T00:04:05.695Z,10.30
2022-11-18T00:06:36.378Z,8.02
2022-11-18T00:09:05.558Z,8.63
2022-11-18T00:11:52.454Z,9.50
2022-11-18T00:14:24.767Z,10.07
2022-11-18T00:16:55.898Z,11.05
2022-11-18T00:19:27.273Z,8.60
2022-11-18T00:21:58.132Z,13.52
2022-11-18T00:24:27.386Z,8.40
2022-11-18T00:26:57.002Z,11.68
2022-11-18T00:29:28.379Z,10.90
2022-11-18T00:31:58.088Z,9.13
2022-11-18T00:34:27.461Z,9.13
2022-11-18T00:36:57.923Z,10.48
2022-11-18T00:39:27.241Z,10.25
2022-11-18T00:42:14.092Z,12.05
2022-11-18T00:44:43.081Z,9.25
2022-11-18T00:47:11.969Z,12.10
2022-11-18T00:49:40.887Z,9.15
2022-11-18T00:52:11.433Z,12.95
2022-11-18T00:54:41.301Z,13.15
2022-11-18T00:57:10.503Z,12.77
2022-11-18T00:59:39.508Z,9.80
2022-11-18T01:02:08.690Z,9.05
2022-11-18T04:17:20.741Z,7.60
2022-11-18T04:19:50.171Z,11.23
2022-11-18T04:22:19.648Z,9.63
2022-11-18T04:24:48.950Z,7.80
2022-11-18T04:27:18.440Z,8.60
2022-11-18T04:29:47.518Z,10.07
2022-11-18T04:32:18.087Z,7.97
2022-11-18T04:34:48.257Z,6.95
2022-11-18T04:37:17.922Z,7.45
2022-11-18T04:39:46.954Z,8.02
2022-11-18T04:42:16.163Z,8.77
2022-11-18T04:44:45.594Z,7.20
2022-11-18T04:47:15.400Z,9.20
2022-11-18T04:49:45.939Z,7.72
2022-11-18T04:52:15.451Z,7.13
2022-11-18T04:54:45.120Z,8.52
2022-11-18T04:57:14.572Z,7.97
2022-11-18T04:59:44.181Z,7.70
2022-11-18T05:02:14.449Z,8.15
2022-11-18T05:04:45.501Z,8.13
2022-11-18T05:07:16.660Z,9.40
2022-11-18T05:09:46.293Z,9.65
2022-11-18T05:12:34.102Z,7.80
2022-11-18T05:15:03.769Z,7.15
2022-11-18T05:17:35.685Z,6.32
2022-11-18T05:20:06.975Z,6.60
2022-11-18T05:22:36.587Z,7.53
2022-11-18T05:25:08.523Z,7.20
2022-11-18T05:27:37.875Z,9.27
2022-11-18T05:30:07.866Z,7.45
2022-11-18T05:32:37.290Z,9.65
2022-11-18T05:35:08.541Z,8.68
2022-11-18T05:37:37.451Z,7.68
2022-11-18T05:40:08.171Z,5.95
2022-11-18T05:42:55.788Z,8.60
2022-11-18T05:45:25.037Z,7.70
2022-11-18T05:48:04.576Z,8.85
2022-11-18T05:50:37.643Z,7.57
2022-11-18T05:53:07.430Z,7.38
2022-11-18T05:55:44.181Z,8.82
2022-11-18T05:58:13.497Z,6.25
2022-11-18T06:00:43.725Z,8.32
2022-11-18T06:03:19.350Z,8.07
2022-11-18T06:05:50.186Z,6.70
2022-11-18T06:08:20.243Z,7.50
2022-11-18T06:10:52.030Z,7.82
2022-11-18T06:13:25.870Z,7.32
2022-11-18T06:15:55.302Z,7.65
2022-11-18T06:18:27.563Z,8.88
2022-11-18T06:21:02.616Z,11.85
2022-11-18T06:23:35.520Z,8.13
2022-11-18T06:26:05.789Z,10.10
2022-11-18T06:28:35.675Z,9.70
2022-11-18T06:31:04.926Z,9.98
2022-11-18T06:33:34.015Z,8.35
2022-11-18T06:36:04.603Z,9.55
2022-11-18T06:38:33.963Z,11.38
2022-11-18T06:41:03.378Z,12.68
2022-11-18T06:43:42.564Z,12.13
2022-11-18T06:46:31.609Z,10.65
2022-11-18T06:49:01.292Z,10.48
2022-11-18T06:51:31.773Z,11.65
2022-11-18T06:54:02.705Z,12.07
2022-11-18T06:56:35.484Z,11.13
2022-11-18T06:59:05.004Z,13.32
2022-11-18T07:01:36.909Z,12.75
2022-11-18T07:04:06.482Z,15.55
2022-11-18T07:06:38.189Z,14.68
2022-11-18T07:09:08.444Z,10.68
2022-11-18T07:11:40.431Z,12.95
2022-11-18T07:14:09.935Z,12.43
2022-11-18T07:16:39.466Z,10.75
2022-11-18T07:19:12.912Z,12.40
2022-11-18T07:21:43.759Z,12.85
2022-11-18T07:24:15.551Z,14.13
2022-11-18T07:26:45.104Z,13.25
2022-11-18T07:29:14.654Z,12.48
2022-11-18T07:31:43.682Z,13.48
2022-11-18T07:34:14.027Z,12.98
2022-11-18T07:36:44.352Z,12.27
2022-11-18T07:39:13.795Z,12.32
2022-11-18T07:41:43.259Z,14.60
2022-11-18T07:44:13.729Z,14.82
2022-11-18T07:46:43.343Z,11.27
2022-11-18T07:49:14.264Z,14.27
2022-11-18T07:51:45.044Z,15.10
2022-11-18T07:54:17.190Z,14.35
2022-11-18T07:56:46.745Z,17.35
2022-11-18T07:59:16.077Z,15.73
2022-11-18T08:01:45.593Z,13.95
2022-11-18T08:04:16.655Z,13.30
2022-11-18T08:06:47.340Z,14.45
2022-11-18T08:09:16.789Z,13.82
2022-11-18T08:11:46.438Z,16.48
2022-11-18T08:14:15.534Z,16.42
2022-11-18T08:16:44.842Z,16.52
2022-11-18T08:19:14.546Z,13.32
2022-11-18T08:21:43.722Z,15.63
2022-11-18T08:24:14.163Z,14.40
2022-11-18T08:26:43.301Z,16.33
2022-11-18T08:29:19.062Z,12.57
2022-11-18T08:31:56.293Z,15.18
2022-11-18T08:34:27.666Z,17.48
2022-11-18T08:37:01.061Z,16.98
2022-11-18T08:39:31.502Z,14.18
2022-11-18T08:42:00.881Z,15.60
2022-11-18T08:44:33.434Z,15.07
2022-11-18T08:47:03.073Z,17.00
2022-11-18T08:49:32.854Z,20.25
2022-11-18T08:52:02.307Z,15.43
2022-11-18T08:54:32.820Z,16.95
2022-11-18T08:57:02.819Z,24.58
2022-11-18T08:59:32.526Z,19.33
2022-11-18T09:02:02.258Z,18.17
2022-11-18T09:04:31.544Z,20.45
2022-11-18T09:07:00.917Z,19.05
2022-11-18T09:09:30.557Z,24.85
2022-11-18T09:12:01.313Z,25.13
2022-11-18T09:15:12.456Z,31.83
2022-11-18T09:17:20.468Z,26.70
2022-11-18T09:19:50.087Z,27.80
2022-11-18T09:22:19.394Z,31.45
2022-11-18T09:24:48.579Z,33.85
2022-11-18T09:27:19.069Z,32.95
2022-11-18T09:29:48.541Z,23.90
2022-11-18T09:32:19.651Z,27.98
2022-11-18T09:34:49.050Z,28.02
2022-11-18T09:37:19.281Z,27.80
2022-11-18T09:39:48.540Z,30.00
2022-11-18T09:42:37.327Z,21.60
2022-11-18T09:45:23.916Z,20.20
2022-11-18T09:47:59.825Z,21.67
2022-11-18T09:53:21.298Z,19.63
2022-11-18T09:55:52.236Z,23.90
2022-11-18T09:58:32.429Z,22.75
2022-11-18T10:01:02.705Z,21.40
2022-11-18T10:03:33.417Z,23.00
2022-11-18T13:20:24.940Z,25.85
2022-11-18T13:23:13.080Z,29.40
2022-11-18T13:25:45.213Z,25.30
2022-11-18T13:28:26.057Z,24.92
2022-11-18T13:31:02.242Z,26.42
2022-11-18T13:33:36.098Z,20.17
2022-11-18T13:38:57.379Z,23.17
2022-11-18T13:41:32.852Z,21.90
2022-11-18T13:44:19.605Z,21.55
2022-11-18T13:46:53.794Z,27.60
2022-11-18T13:49:28.618Z,28.23
2022-11-18T13:51:59.190Z,31.92
2022-11-18T13:54:28.865Z,33.80
2022-11-18T13:56:57.758Z,28.45
2022-11-18T13:59:28.017Z,33.95
2022-11-18T14:02:00.357Z,23.00
2022-11-18T14:04:32.015Z,18.05
2022-11-18T14:07:27.034Z,20.98
2022-11-18T14:09:58.630Z,19.25
2022-11-18T14:12:30.081Z,19.63
2022-11-18T14:15:18.094Z,17.20
2022-11-18T14:17:58.083Z,20.67
2022-11-18T14:20:32.175Z,16.55
2022-11-18T14:23:05.558Z,19.58
2022-11-18T14:25:36.907Z,18.95
2022-11-18T14:28:23.756Z,21.27
2022-11-18T14:31:05.276Z,18.05
2022-11-18T14:33:35.985Z,16.00
2022-11-18T14:36:12.201Z,16.88
2022-11-18T14:39:11.311Z,15.63
2022-11-18T14:41:48.645Z,19.45
2022-11-18T14:44:18.563Z,19.20
2022-11-18T14:46:49.511Z,18.48
2022-11-18T14:49:22.133Z,16.80
2022-11-18T14:51:51.984Z,16.67
2022-11-18T14:54:26.740Z,20.40
2022-11-18T14:56:59.242Z,19.45
2022-11-18T14:59:28.198Z,19.02
2022-11-18T15:01:58.569Z,16.13
2022-11-18T15:04:27.711Z,15.90
2022-11-18T15:06:56.693Z,15.63
2022-11-18T15:09:26.872Z,19.90
2022-11-18T15:11:55.610Z,16.83
2022-11-18T15:14:24.352Z,20.63
2022-11-18T15:16:53.223Z,19.23
2022-11-18T15:19:22.202Z,19.80
2022-11-18T15:21:56.188Z,16.48
2022-11-18T15:24:26.435Z,16.70
2022-11-18T15:26:55.135Z,18.60
2022-11-18T15:29:26.731Z,15.77
2022-11-18T15:31:55.462Z,17.73
2022-11-18T15:34:24.583Z,16.65
2022-11-18T15:36:53.758Z,16.20
2022-11-18T15:39:22.629Z,17.23
2022-11-18T15:41:52.695Z,20.42
2022-11-18T15:44:22.454Z,14.88
2022-11-18T15:46:51.285Z,18.90
2022-11-18T15:49:20.209Z,16.02
2022-11-18T15:51:49.027Z,15.73
2022-11-18T15:54:18.119Z,19.15
2022-11-18T15:56:47.115Z,15.70
2022-11-18T15:59:17.441Z,17.08
2022-11-18T16:01:49.072Z,15.30
2022-11-18T16:04:19.952Z,16.80
2022-11-18T16:06:49.691Z,12.77
2022-11-18T16:09:19.258Z,15.82
2022-11-18T16:12:05.738Z,15.05
2022-11-18T16:14:38.277Z,14.93
2022-11-18T16:17:07.208Z,13.25
2022-11-18T16:19:36.044Z,14.07
2022-11-18T16:22:04.883Z,18.27
2022-11-18T16:24:34.036Z,14.45
2022-11-18T16:27:04.757Z,17.92
2022-11-18T16:29:35.136Z,18.67
2022-11-18T16:32:04.051Z,18.02
2022-11-18T16:34:32.814Z,16.10
2022-11-18T16:37:01.853Z,19.77
2022-11-18T16:39:30.902Z,26.20
2022-11-18T16:42:07.877Z,17.73
2022-11-18T16:44:39.148Z,15.43
2022-11-18T16:47:14.137Z,16.52
2022-11-18T16:49:44.238Z,18.73
2022-11-18T16:52:13.031Z,18.05
2022-11-18T16:54:45.793Z,18.23
2022-11-18T16:57:15.627Z,17.38
2022-11-18T16:59:45.714Z,18.73
2022-11-18T17:02:15.243Z,20.55
2022-11-18T17:04:44.276Z,15.52
2022-11-18T17:07:14.275Z,18.60
2022-11-18T17:09:43.133Z,17.42
2022-11-18T17:12:14.861Z,17.70
2022-11-18T17:14:53.372Z,18.10
2022-11-18T17:17:22.561Z,15.30
2022-11-18T17:19:52.476Z,18.58
2022-11-18T17:22:21.276Z,15.02
2022-11-18T17:24:50.938Z,16.65
2022-11-18T17:27:24.381Z,17.40
2022-11-18T17:29:57.590Z,14.80
2022-11-18T17:32:26.522Z,17.55
2022-11-18T17:34:55.366Z,17.70
2022-11-18T17:37:24.237Z,18.75
2022-11-18T17:39:53.213Z,18.70
2022-11-18T17:42:25.721Z,20.10
2022-11-18T17:44:55.815Z,17.17
2022-11-18T17:47:24.608Z,18.48
2022-11-18T17:49:53.409Z,18.40
2022-11-18T17:52:22.201Z,19.25
2022-11-18T17:54:51.213Z,18.20
2022-11-18T17:57:48.859Z,20.38
2022-11-18T18:00:20.812Z,20.33
2022-11-18T18:02:49.597Z,19.90
2022-11-18T18:05:18.581Z,20.83
2022-11-18T18:07:48.416Z,17.58
2022-11-18T18:10:20.198Z,17.45
2022-11-18T18:13:06.500Z,20.17
2022-11-18T18:15:37.575Z,18.20
2022-11-18T18:18:06.504Z,18.92
2022-11-18T18:20:35.957Z,16.65
2022-11-18T18:23:05.214Z,17.85
2022-11-18T18:25:36.668Z,19.77
2022-11-18T18:28:06.281Z,17.23
2022-11-18T18:30:36.399Z,17.25
2022-11-18T18:33:06.520Z,17.23
2022-11-18T18:35:35.372Z,17.95
2022-11-18T18:38:04.474Z,15.77
2022-11-18T18:40:34.454Z,15.85
2022-11-18T18:43:04.899Z,16.20
2022-11-18T18:45:51.079Z,12.48
2022-11-18T18:48:21.227Z,14.75
2022-11-18T18:50:55.232Z,15.25
2022-11-18T18:53:32.599Z,13.63
2022-11-18T18:56:02.962Z,17.70
2022-11-18T18:58:34.096Z,15.25
2022-11-18T19:01:07.233Z,14.20
2022-11-18T19:03:44.693Z,13.52
2022-11-18T19:09:10.130Z,11.90
2022-11-18T19:11:56.717Z,14.15
2022-11-18T19:14:27.189Z,12.77
2022-11-18T19:16:58.076Z,12.98
2022-11-18T19:19:47.071Z,14.32
2022-11-18T19:22:16.542Z,11.55
2022-11-18T19:24:50.191Z,16.23
2022-11-18T19:27:19.658Z,14.15
2022-11-18T19:29:48.665Z,12.25
2022-11-18T19:32:17.437Z,14.52
2022-11-18T19:34:47.668Z,15.93
2022-11-18T19:37:16.397Z,13.90
2022-11-18T19:39:45.171Z,12.70
2022-11-18T22:13:00.020Z,20.63
2022-11-18T22:15:29.488Z,23.05
2022-11-18T22:17:58.812Z,21.15
2022-11-18T22:20:27.971Z,22.75
2022-11-18T22:22:57.483Z,21.98
2022-11-18T22:26:01.933Z,22.63
2022-11-18T22:28:32.879Z,21.02
2022-11-18T22:31:07.592Z,23.20
2022-11-18T22:33:44.449Z,23.85
2022-11-18T22:36:22.786Z,21.88
2022-11-18T22:38:52.299Z,25.05
2022-11-18T22:41:41.110Z,21.92
2022-11-18T22:44:13.781Z,24.33
2022-11-18T22:46:45.507Z,25.50
2022-11-18T22:49:15.040Z,23.75
2022-11-18T22:51:44.270Z,22.02
2022-11-18T22:54:37.810Z,22.90
2022-11-18T22:57:03.856Z,21.10
2022-11-18T22:59:34.591Z,23.15
2022-11-18T23:02:04.293Z,21.38
2022-11-18T23:04:34.162Z,22.58
2022-11-18T23:07:03.649Z,22.52
2022-11-18T23:09:33.600Z,19.08
2022-11-18T23:12:21.342Z,23.88
2022-11-18T23:14:51.759Z,21.73
2022-11-18T23:17:21.098Z,22.48
2022-11-18T23:19:50.667Z,21.70
2022-11-18T23:22:20.024Z,21.13
2022-11-18T23:24:49.616Z,22.15
2022-11-18T23:27:18.515Z,20.05
2022-11-18T23:29:47.813Z,20.23
2022-11-18T23:32:18.083Z,18.60
2022-11-18T23:34:48.352Z,18.50
2022-11-18T23:37:17.440Z,21.55
2022-11-18T23:39:46.344Z,19.95
2022-11-18T23:42:15.278Z,21.63
2022-11-18T23:44:47.267Z,22.75
2022-11-18T23:47:18.733Z,21.95
2022-11-18T23:49:47.911Z,19.15
2022-11-18T23:52:17.565Z,17.80
2022-11-18T23:54:49.786Z,18.50
2022-11-18T23:57:19.118Z,21.25
2022-11-18T23:59:48.056Z,18.85
